Warrens, WI (54666)

1:50 PM CST on December 05, 2016 (GMT -0600)
Downtown Warrens | | Change Station

Elev 1020 ft 44.13 °N, 90.50 °W | Updated 0 second ago

Scattered Clouds
Scattered Clouds
36.1 °F
Feels Like 33 °F
N
4.0
Wind Variable Wind from ESE
Gusts 4.9 mph

Today
High -- | Low -- °F
--% Chance of Precip.
Yesterday
High -- | Low -- °F
Precip. -- in
Pressure 29.86 in
Visibility 10.0 miles
Clouds Scattered Clouds 10000 ft
Windchill 33 °F
Dew Point 33 °F
Humidity 88%
Rainfall 0.00 in
Snow Depth Not available.
7:21 AM 4:23 PM
Waxing Crescent, 34% visible
METAR KCMY 051935Z AUTO 17008KT 10SM SCT100 03/01 A2986 RMK AO2 T00310007
Pressure 29.86 in
Visibility 10.0 miles
Clouds Scattered Clouds 10000 ft
Windchill 33 °F
Dew Point 33 °F
Humidity 88%
Rainfall 0.00 in
Snow Depth Not available.
7:21 AM 4:23 PM
Waxing Crescent, 34% visible
METAR KCMY 051935Z AUTO 17008KT 10SM SCT100 03/01 A2986 RMK AO2 T00310007

10-Day Weather Forecast

Almanac

Astronomy

Dec. 05, 2016 Rise Set
Actual Time
Civil Twilight
Nautical Twilight
Astronomical Twilight
Moon
Length of Visible Light
Length of Day
Tomorrow will be .
, % of the Moon is Illuminated

Today's Extremes

State Highs State Lows

Community

WunderPhotos

Upload Photos

1,955,845 photos uploaded!

WunderBlog® & News

Nearby

Air Quality

  Air Quality AQ Index Pollutant
Not available.

Snow Depth

Station Depth Elevation

Earthquake Activity

City Distance Mag. Time & Date
Minimum magnitude displayed is 2.5.

Coastal Water Temperatures

Place Temperature

Stations

Nearby Weather Stations

Station Location Temp. Windchill Dew Point Humidity Wind Precip. Elev Updated Type
                   

Watches & Warnings

There are currently no watches in effect.